YTRE

Details ICAO YTRE (TRO)
Name Taree
Region Australia
Timezone Australia/Sydney (UTC+11.0)
Plans Departing 3
Arriving 4
Stats Elevation 37 ft / 11 m (AMSL)
Location -31.887184° 152.512665°
Runways 2
Magnetic Variation 12.275° E
Sunrise 2017-12-18 18:41:15 UTC / 2017-12-19 05:41:15 Local
Sunset 2017-12-19 08:55:08 UTC / 2017-12-19 19:55:08 Local
Advertisement - Login to hide

Runways

ID Width Length Bearing (true) Bearing (mag) Surface Threshold Offset Overrun Length
04 98 ft / 30 m 4,946 ft / 1,508 m 44.90° 32.62° Asphalt 384 ft / 117 m 0 ft / 0 m
12 164 ft / 50 m 2,249 ft / 685 m 138.19° 125.91° Grass 0 ft / 0 m 0 ft / 0 m
22 98 ft / 30 m 4,946 ft / 1,508 m 224.90° 212.62° Asphalt 0 ft / 0 m 0 ft / 0 m
30 164 ft / 50 m 2,249 ft / 685 m 318.18° 305.90° Grass 0 ft / 0 m 0 ft / 0 m

Map

Weather


0- 5 10 15 20 25 30 35+ Temperature / ° C

Clouds and Precipitation
Forecast for 2017-12-18 18:00 UTC. Updated an hour ago

Ground ~20,000 ft ~40,000 ft Winds

METAR

YTRE 181600Z AUTO 10004KT 9999 // NCD 21/18 Q1008

TAF

TAF YTRE 181250Z 1814/1902 02007KT CAVOK FM182200 03010KT CAVOK

Frequencies

Unicom 122.40 MHz ACTIVATE LIGHTS ONLY MULT
Tower 120.55 MHz BRISBANE CNTR
Unicom 118.10 MHz TAREE MULT
Warning: Do not use this data for real-world aviation or navigation. No guarantee of current accuracy is given.